createdAt,value
2019-05-20T00:01:48.742Z,34.20
2019-05-20T00:04:19.225Z,36.00
2019-05-20T00:06:49.075Z,35.33
2019-05-20T00:09:19.483Z,34.73
2019-05-20T00:11:49.350Z,36.90
2019-05-20T00:14:19.776Z,39.30
2019-05-20T00:16:50.299Z,43.30
2019-05-20T00:19:21.146Z,40.67
2019-05-20T00:21:51.650Z,41.67
2019-05-20T00:24:22.119Z,46.97
2019-05-20T00:26:52.575Z,45.27
2019-05-20T00:29:22.369Z,42.63
2019-05-20T00:31:52.760Z,43.17
2019-05-20T00:34:34.708Z,52.17
2019-05-20T00:36:53.797Z,52.40
2019-05-20T00:39:24.197Z,53.00
2019-05-20T00:41:53.934Z,52.40
2019-05-20T00:44:23.629Z,56.17
2019-05-20T00:46:53.975Z,54.73
2019-05-20T00:49:26.309Z,55.80
2019-05-20T00:51:56.009Z,59.13
2019-05-20T00:54:26.301Z,53.93
2019-05-20T00:56:55.999Z,53.73
2019-05-20T00:59:26.271Z,55.78
2019-05-20T01:01:56.006Z,56.90
2019-05-20T01:04:26.270Z,57.83
2019-05-20T01:06:56.757Z,59.47
2019-05-20T01:09:27.183Z,55.60
2019-05-20T01:11:57.600Z,55.17
2019-05-20T01:14:28.050Z,58.27
2019-05-20T01:16:58.551Z,56.80
2019-05-20T01:19:28.992Z,56.83
2019-05-20T01:21:59.389Z,57.77
2019-05-20T01:24:31.158Z,55.73
2019-05-20T01:27:01.598Z,59.57
2019-05-20T01:29:32.086Z,59.37
2019-05-20T01:32:02.537Z,58.87
2019-05-20T01:34:32.979Z,60.70
2019-05-20T01:37:03.379Z,55.70
2019-05-20T01:39:33.855Z,51.17
2019-05-20T01:42:04.391Z,50.13
2019-05-20T01:44:34.804Z,48.57
2019-05-20T01:47:04.517Z,48.07
2019-05-20T01:49:34.853Z,45.97
2019-05-20T01:52:04.575Z,45.07
2019-05-20T01:54:34.902Z,42.33
2019-05-20T01:57:05.362Z,40.93
2019-05-20T01:59:35.794Z,40.25
2019-05-20T02:02:05.541Z,38.90
2019-05-20T02:04:38.175Z,40.13
2019-05-20T02:07:08.618Z,40.83
2019-05-20T02:09:39.075Z,36.30
2019-05-20T02:12:09.497Z,36.10
2019-05-20T02:14:45.385Z,39.83
2019-05-20T02:17:15.228Z,45.97
2019-05-20T02:19:45.530Z,48.23
2019-05-20T02:22:15.307Z,49.70
2019-05-20T02:24:45.626Z,53.00
2019-05-20T02:27:17.219Z,54.70
2019-05-20T02:29:47.527Z,50.97
2019-05-20T02:32:18.806Z,52.03
2019-05-20T02:34:49.163Z,54.97
2019-05-20T02:37:20.328Z,49.47
2019-05-20T02:39:50.718Z,51.80
2019-05-20T02:42:21.110Z,50.90
2019-05-20T02:44:51.514Z,47.97
2019-05-20T02:47:21.934Z,49.57
2019-05-20T02:49:52.338Z,49.57
2019-05-20T02:52:22.192Z,47.80
2019-05-20T02:54:52.587Z,49.63
2019-05-20T02:57:22.347Z,49.73
2019-05-20T02:59:52.655Z,45.63
2019-05-20T03:02:23.067Z,43.67
2019-05-20T03:04:53.450Z,45.13
2019-05-20T03:07:23.185Z,43.37
2019-05-20T03:09:53.561Z,44.17
2019-05-20T03:12:23.983Z,43.10
2019-05-20T03:14:54.379Z,41.30
2019-05-20T03:17:24.051Z,41.00
2019-05-20T03:19:54.639Z,42.73
2019-05-20T03:22:25.202Z,40.20
2019-05-20T03:24:55.653Z,38.27
2019-05-20T03:27:26.071Z,40.27
2019-05-20T03:29:56.492Z,36.47
2019-05-20T03:32:26.891Z,39.67
2019-05-20T03:35:00.107Z,37.60
2019-05-20T03:37:28.783Z,37.87
2019-05-20T03:39:59.235Z,38.73
2019-05-20T03:42:29.661Z,36.27
2019-05-20T03:45:00.060Z,36.90
2019-05-20T03:47:29.802Z,38.73
2019-05-20T03:50:00.119Z,37.13
2019-05-20T03:52:30.451Z,38.08
2019-05-20T03:55:00.803Z,37.37
2019-05-20T03:57:30.545Z,37.10
2019-05-20T04:00:00.854Z,37.73
2019-05-20T04:02:31.300Z,38.27
2019-05-20T04:05:03.195Z,38.70
2019-05-20T04:07:33.676Z,40.47
2019-05-20T04:10:04.211Z,40.23
2019-05-20T04:12:34.697Z,40.80
2019-05-20T04:15:05.313Z,39.37
2019-05-20T04:17:35.028Z,39.25
2019-05-20T04:20:05.919Z,38.63
2019-05-20T04:22:35.667Z,38.27
2019-05-20T04:25:06.675Z,36.93
2019-05-20T04:27:36.393Z,35.13
2019-05-20T04:30:07.298Z,34.33
2019-05-20T04:32:37.019Z,33.03
2019-05-20T04:35:21.272Z,31.50
2019-05-20T04:37:39.509Z,29.97
2019-05-20T04:40:10.276Z,28.47
2019-05-20T04:42:40.636Z,27.23
2019-05-20T04:45:11.505Z,25.53
2019-05-20T04:47:41.239Z,25.00
2019-05-20T04:50:11.786Z,27.70
2019-05-20T04:52:42.221Z,28.03
2019-05-20T04:55:11.962Z,27.57
2019-05-20T04:57:41.551Z,27.83
2019-05-20T05:00:12.391Z,27.90
2019-05-20T05:02:43.817Z,27.47
2019-05-20T05:05:14.700Z,28.10
2019-05-20T05:07:45.083Z,26.70
2019-05-20T05:10:15.703Z,26.07
2019-05-20T05:12:46.142Z,28.53
2019-05-20T05:15:16.807Z,26.07
2019-05-20T05:17:46.536Z,26.60
2019-05-20T05:20:18.488Z,24.50
2019-05-20T05:22:49.139Z,24.10
2019-05-20T05:25:19.670Z,23.70
2019-05-20T05:27:50.110Z,22.80
2019-05-20T05:30:20.587Z,20.07
2019-05-20T05:32:51.079Z,18.90
2019-05-20T05:35:23.082Z,18.00
2019-05-20T05:37:52.862Z,16.63
2019-05-20T05:40:26.558Z,15.97
2019-05-20T05:42:57.049Z,16.63
2019-05-20T05:45:30.575Z,16.97
2019-05-20T05:48:01.240Z,17.37
2019-05-20T05:50:31.728Z,19.65
2019-05-20T05:53:02.163Z,20.13
2019-05-20T05:55:33.698Z,19.17
2019-05-20T05:58:07.812Z,16.40
2019-05-20T06:00:36.483Z,16.80
2019-05-20T06:03:06.964Z,17.53
2019-05-20T06:05:36.707Z,15.90
2019-05-20T06:08:07.003Z,18.27
2019-05-20T06:10:36.812Z,17.33
2019-05-20T06:13:07.239Z,18.50
2019-05-20T06:15:37.628Z,16.10
2019-05-20T06:18:08.016Z,16.33
2019-05-20T06:20:38.410Z,16.20
2019-05-20T06:23:08.882Z,15.20
2019-05-20T06:25:38.685Z,16.12
2019-05-20T06:28:09.112Z,15.20
2019-05-20T06:30:40.259Z,14.73
2019-05-20T06:33:10.747Z,16.63
2019-05-20T06:35:40.713Z,16.50
2019-05-20T06:38:18.471Z,17.03
2019-05-20T06:40:48.143Z,16.30
2019-05-20T06:43:18.521Z,17.27
2019-05-20T06:45:48.923Z,17.20
2019-05-20T06:48:19.430Z,17.03
2019-05-20T06:50:50.895Z,16.70
2019-05-20T06:53:21.464Z,21.10
2019-05-20T06:55:51.884Z,21.13
2019-05-20T06:58:22.406Z,19.17
2019-05-20T07:00:52.887Z,19.93
2019-05-20T07:03:23.387Z,20.70
2019-05-20T07:05:53.876Z,20.03
2019-05-20T07:08:23.653Z,19.40
2019-05-20T07:10:54.079Z,20.07
2019-05-20T07:13:24.465Z,20.27
2019-05-20T07:15:54.924Z,18.85
2019-05-20T07:18:27.333Z,18.97
2019-05-20T07:20:56.594Z,18.67
2019-05-20T07:23:26.298Z,19.55
2019-05-20T07:25:56.572Z,18.77
2019-05-20T07:28:26.612Z,19.03
2019-05-20T07:30:56.325Z,15.73
2019-05-20T07:33:25.930Z,15.90
2019-05-20T07:35:56.197Z,14.87
2019-05-20T07:38:25.903Z,14.27
2019-05-20T07:40:56.173Z,13.87
2019-05-20T07:43:26.267Z,12.63
2019-05-20T07:45:57.411Z,11.53
2019-05-20T07:48:28.098Z,10.50
2019-05-20T07:50:59.380Z,9.13
2019-05-20T07:53:30.440Z,9.50
2019-05-20T07:56:08.670Z,9.33
2019-05-20T07:58:42.045Z,9.35
2019-05-20T08:01:11.782Z,10.50
2019-05-20T08:03:42.090Z,10.30
2019-05-20T08:06:11.892Z,10.20
2019-05-20T08:08:41.503Z,10.20
2019-05-20T08:11:11.797Z,11.10
2019-05-20T08:13:42.281Z,10.00
2019-05-20T08:16:11.944Z,10.70
2019-05-20T08:18:41.614Z,10.50
2019-05-20T08:21:11.264Z,10.63
2019-05-20T08:23:40.923Z,11.43
2019-05-20T08:26:10.561Z,10.07
2019-05-20T08:28:40.173Z,11.20
2019-05-20T08:31:10.470Z,11.80
2019-05-20T08:33:40.328Z,11.83
2019-05-20T08:36:10.665Z,11.37
2019-05-20T08:38:40.426Z,12.33
2019-05-20T08:41:10.755Z,10.00
2019-05-20T08:43:41.171Z,10.40
2019-05-20T08:46:10.914Z,10.03
2019-05-20T08:48:40.650Z,10.83
2019-05-20T08:51:10.248Z,10.80
2019-05-20T08:53:40.987Z,10.73
2019-05-20T08:56:12.884Z,9.97
2019-05-20T08:58:42.500Z,10.03
2019-05-20T09:01:12.565Z,10.73
2019-05-20T09:03:42.256Z,11.13
2019-05-20T09:06:11.916Z,11.07
2019-05-20T09:08:42.207Z,10.97
2019-05-20T09:11:12.877Z,10.23
2019-05-20T09:13:42.624Z,10.40
2019-05-20T09:16:12.246Z,10.80
2019-05-20T09:18:42.600Z,10.67
2019-05-20T09:21:13.140Z,10.93
2019-05-20T09:23:43.666Z,11.48
2019-05-20T09:26:16.634Z,12.00
2019-05-20T09:28:47.120Z,12.47
2019-05-20T09:31:17.015Z,11.60
2019-05-20T09:33:46.668Z,11.70
2019-05-20T09:36:17.085Z,11.27
2019-05-20T09:38:46.816Z,10.33
2019-05-20T09:41:16.418Z,10.47
2019-05-20T09:43:46.108Z,9.43
2019-05-20T09:46:16.617Z,9.40
2019-05-20T09:48:46.428Z,9.93
2019-05-20T09:51:16.835Z,10.57
2019-05-20T09:53:46.599Z,9.23
2019-05-20T09:56:17.050Z,8.60
2019-05-20T09:58:46.914Z,8.63
2019-05-20T10:01:17.329Z,8.50
2019-05-20T10:03:47.136Z,8.33
2019-05-20T10:06:16.800Z,8.23
2019-05-20T10:08:46.474Z,7.70
2019-05-20T10:11:16.180Z,8.70
2019-05-20T10:13:46.586Z,10.03
2019-05-20T10:16:16.957Z,9.20
2019-05-20T10:18:47.352Z,9.57
2019-05-20T10:21:17.080Z,9.07
2019-05-20T10:23:46.751Z,10.30
2019-05-20T10:26:17.058Z,10.37
2019-05-20T10:28:47.729Z,10.30
2019-05-20T10:31:17.679Z,9.60
2019-05-20T10:33:47.991Z,11.33
2019-05-20T10:36:17.767Z,10.10
2019-05-20T10:38:58.749Z,10.30
2019-05-20T10:41:21.906Z,12.33
2019-05-20T10:43:52.395Z,12.67
2019-05-20T10:46:22.157Z,12.23
2019-05-20T10:48:51.770Z,12.80
2019-05-20T10:51:22.159Z,12.17
2019-05-20T10:53:52.554Z,11.67
2019-05-20T10:56:22.382Z,13.00
2019-05-20T10:58:52.014Z,11.47
2019-05-20T11:01:21.640Z,12.87
2019-05-20T11:03:52.000Z,11.73
2019-05-20T11:06:21.689Z,11.07
2019-05-20T11:08:52.631Z,13.37
2019-05-20T11:11:22.503Z,13.50
2019-05-20T11:13:52.229Z,13.83
2019-05-20T11:16:21.884Z,12.60
2019-05-20T11:18:51.476Z,12.37
2019-05-20T11:21:21.873Z,11.53
2019-05-20T11:23:52.360Z,12.10
2019-05-20T11:26:22.119Z,12.83
2019-05-20T11:28:51.811Z,13.50
2019-05-20T11:31:22.102Z,12.57
2019-05-20T11:33:51.918Z,11.47
2019-05-20T11:36:21.576Z,11.37
2019-05-20T11:38:51.232Z,11.63
2019-05-20T11:41:51.310Z,10.93
2019-05-20T11:43:52.304Z,10.43
2019-05-20T11:46:22.023Z,11.10
2019-05-20T11:48:52.380Z,10.57
2019-05-20T11:51:22.122Z,10.00
2019-05-20T11:53:51.778Z,12.37
2019-05-20T11:56:22.103Z,11.23
2019-05-20T11:58:51.802Z,10.33
2019-05-20T12:01:21.475Z,11.00
2019-05-20T12:03:51.741Z,15.30
2019-05-20T12:06:21.468Z,15.07
2019-05-20T12:08:51.083Z,15.47
2019-05-20T12:11:21.411Z,14.97
2019-05-20T12:13:51.177Z,15.13
2019-05-20T12:16:21.569Z,16.37
2019-05-20T12:18:51.326Z,17.40
2019-05-20T12:21:21.669Z,19.30
2019-05-20T12:23:51.390Z,20.33
2019-05-20T12:26:22.807Z,22.20
2019-05-20T12:28:52.777Z,23.07
2019-05-20T12:31:22.499Z,23.27
2019-05-20T12:33:52.210Z,23.57
2019-05-20T12:36:22.690Z,22.93
2019-05-20T12:38:52.980Z,23.50
2019-05-20T12:41:22.782Z,21.97
2019-05-20T12:44:10.881Z,21.57
2019-05-20T12:46:25.479Z,22.20
2019-05-20T12:48:55.474Z,21.47
2019-05-20T12:51:25.839Z,23.07
2019-05-20T12:53:55.664Z,21.73
2019-05-20T12:56:25.336Z,22.40
2019-05-20T12:58:55.156Z,21.17
2019-05-20T13:01:25.528Z,22.30
2019-05-20T13:03:55.327Z,23.63
2019-05-20T13:06:25.055Z,22.60
2019-05-20T13:08:55.076Z,23.50
2019-05-20T13:11:24.737Z,20.57
2019-05-20T13:13:54.466Z,20.77
2019-05-20T13:16:24.164Z,26.17
2019-05-20T13:18:56.349Z,22.30
2019-05-20T13:21:25.309Z,20.02
2019-05-20T13:23:57.587Z,18.00
2019-05-20T13:26:27.173Z,18.37
2019-05-20T13:28:59.648Z,18.00
2019-05-20T13:31:29.023Z,21.40
2019-05-20T13:33:58.865Z,20.77
2019-05-20T13:36:29.207Z,21.50
2019-05-20T13:38:59.036Z,23.07
2019-05-20T13:41:29.602Z,23.70
2019-05-20T13:44:00.142Z,24.73
2019-05-20T13:46:30.631Z,23.90
2019-05-20T13:49:01.137Z,25.95
2019-05-20T13:51:31.573Z,25.87
2019-05-20T13:54:01.964Z,25.77
2019-05-20T13:56:32.430Z,26.50
2019-05-20T13:59:02.786Z,26.57
2019-05-20T14:01:33.216Z,26.97
2019-05-20T14:04:03.551Z,27.50
2019-05-20T14:06:33.964Z,28.95
2019-05-20T14:09:07.452Z,29.57
2019-05-20T14:11:36.039Z,27.77
2019-05-20T14:14:06.309Z,28.80
2019-05-20T14:16:36.037Z,28.40
2019-05-20T14:19:06.989Z,27.50
2019-05-20T14:21:36.753Z,27.40
2019-05-20T14:24:06.438Z,25.87
2019-05-20T14:26:36.105Z,26.47
2019-05-20T14:29:05.837Z,25.30
2019-05-20T14:31:35.524Z,23.80
2019-05-20T14:34:05.162Z,23.57
2019-05-20T14:36:40.220Z,23.73
2019-05-20T14:39:07.595Z,22.13
2019-05-20T14:41:37.365Z,22.10
2019-05-20T14:44:07.081Z,21.90
2019-05-20T14:46:36.701Z,22.30
2019-05-20T14:49:06.365Z,20.77
2019-05-20T14:51:36.130Z,21.00
2019-05-20T14:54:05.857Z,20.70
2019-05-20T14:56:35.611Z,20.90
2019-05-20T14:59:06.079Z,18.90
2019-05-20T15:01:35.856Z,18.03
2019-05-20T15:04:05.598Z,18.40
2019-05-20T15:06:35.265Z,18.93
2019-05-20T15:09:06.761Z,18.73
2019-05-20T15:11:38.563Z,18.05
2019-05-20T15:14:08.385Z,17.87
2019-05-20T15:16:38.819Z,16.90
2019-05-20T15:19:09.554Z,15.60
2019-05-20T15:21:40.056Z,16.07
2019-05-20T15:24:09.801Z,16.23
2019-05-20T15:26:40.099Z,16.20
2019-05-20T15:29:26.614Z,16.30
2019-05-20T15:31:41.777Z,17.33
2019-05-20T15:34:12.230Z,17.37
2019-05-20T15:36:42.627Z,17.93
2019-05-20T15:39:12.339Z,16.13
2019-05-20T15:41:42.694Z,17.33
2019-05-20T15:44:14.048Z,18.37
2019-05-20T15:46:44.484Z,17.43
2019-05-20T15:49:17.987Z,18.10
2019-05-20T15:51:47.843Z,17.13
2019-05-20T15:54:19.994Z,17.47
2019-05-20T15:56:51.362Z,16.37
2019-05-20T15:59:22.301Z,17.90
2019-05-20T16:01:52.040Z,17.17
2019-05-20T16:04:22.444Z,16.17
2019-05-20T16:06:52.927Z,15.57
2019-05-20T16:09:23.325Z,16.00
2019-05-20T16:11:53.070Z,14.53
2019-05-20T16:14:23.419Z,15.70
2019-05-20T16:16:53.824Z,14.83
2019-05-20T16:19:23.503Z,15.90
2019-05-20T16:21:53.103Z,16.30
2019-05-20T16:24:22.710Z,16.30
2019-05-20T16:26:53.047Z,16.60
2019-05-20T16:29:23.410Z,16.80
2019-05-20T16:31:53.133Z,15.63
2019-05-20T16:34:23.394Z,16.87
2019-05-20T16:36:53.107Z,17.17
2019-05-20T16:39:23.402Z,16.67
2019-05-20T16:41:53.095Z,17.07
2019-05-20T16:44:23.371Z,17.07
2019-05-20T16:46:53.747Z,16.93
2019-05-20T16:49:24.115Z,16.13
2019-05-20T16:51:53.823Z,16.07
2019-05-20T16:54:23.408Z,16.57
2019-05-20T16:56:57.115Z,15.37
2019-05-20T16:59:26.754Z,17.13
2019-05-20T17:01:56.443Z,16.40
2019-05-20T17:04:26.081Z,15.93
2019-05-20T17:06:55.865Z,15.23
2019-05-20T17:09:25.578Z,15.27
2019-05-20T17:11:55.269Z,14.67
2019-05-20T17:14:25.001Z,13.87
2019-05-20T17:16:55.311Z,14.70
2019-05-20T17:19:25.059Z,15.77
2019-05-20T17:21:54.686Z,15.63
2019-05-20T17:24:24.337Z,16.43
2019-05-20T17:26:54.668Z,16.13
2019-05-20T17:29:25.113Z,15.57
2019-05-20T17:31:54.851Z,14.67
2019-05-20T17:34:25.297Z,14.73
2019-05-20T17:36:55.380Z,14.40
2019-05-20T17:39:25.037Z,14.67
2019-05-20T17:41:54.659Z,15.00
2019-05-20T17:44:25.061Z,14.57
2019-05-20T17:46:54.790Z,13.97
2019-05-20T17:49:25.095Z,14.03
2019-05-20T17:51:55.386Z,13.60
2019-05-20T17:54:25.207Z,12.37
2019-05-20T17:56:55.589Z,12.57
2019-05-20T17:59:25.398Z,12.80
2019-05-20T18:01:55.799Z,13.07
2019-05-20T18:04:25.670Z,11.70
2019-05-20T18:06:56.140Z,13.43
2019-05-20T18:09:27.580Z,12.30
2019-05-20T18:11:57.833Z,11.83
2019-05-20T18:14:27.617Z,12.90
2019-05-20T18:16:58.121Z,12.43
2019-05-20T18:19:27.870Z,10.67
2019-05-20T18:21:58.112Z,10.33
2019-05-20T18:24:27.812Z,10.30
2019-05-20T18:26:57.426Z,11.30
2019-05-20T18:29:27.718Z,11.90
2019-05-20T18:31:57.446Z,9.30
2019-05-20T18:34:27.941Z,10.30
2019-05-20T18:36:57.671Z,9.83
2019-05-20T18:39:27.378Z,10.50
2019-05-20T18:41:57.359Z,9.60
2019-05-20T18:44:27.665Z,9.17
2019-05-20T18:46:58.068Z,7.93
2019-05-20T18:49:28.579Z,8.17
2019-05-20T18:51:58.383Z,9.03
2019-05-20T18:54:28.819Z,9.40
2019-05-20T18:56:59.285Z,8.20
2019-05-20T18:59:29.695Z,8.00
2019-05-20T19:02:05.238Z,8.30
2019-05-20T19:04:31.554Z,7.97
2019-05-20T19:07:01.959Z,8.73
2019-05-20T19:09:31.675Z,8.00
2019-05-20T19:12:01.327Z,7.78
2019-05-20T19:14:31.538Z,7.73
2019-05-20T19:17:01.819Z,7.40
2019-05-20T19:19:31.533Z,7.70
2019-05-20T19:22:01.876Z,9.20
2019-05-20T19:24:31.613Z,9.77
2019-05-20T19:27:01.367Z,11.83
2019-05-20T19:29:31.713Z,10.63
2019-05-20T19:32:02.387Z,10.43
2019-05-20T19:34:34.604Z,12.73
2019-05-20T19:37:05.066Z,12.13
2019-05-20T19:39:34.857Z,11.83
2019-05-20T19:42:05.354Z,10.67
2019-05-20T19:44:35.883Z,10.07
2019-05-20T19:47:05.633Z,9.27
2019-05-20T19:49:35.894Z,11.20
2019-05-20T19:52:06.442Z,12.50
2019-05-20T19:54:50.761Z,12.33
2019-05-20T19:57:20.466Z,12.53
2019-05-20T19:59:50.089Z,13.03
2019-05-20T20:02:20.407Z,12.67
2019-05-20T20:04:50.202Z,12.93
2019-05-20T20:07:19.949Z,12.83
2019-05-20T20:09:50.378Z,12.40
2019-05-20T20:12:20.419Z,13.20
2019-05-20T20:14:50.075Z,12.93
2019-05-20T20:17:20.436Z,12.37
2019-05-20T20:19:50.157Z,11.90
2019-05-20T20:22:20.447Z,11.97
2019-05-20T20:24:50.570Z,11.87
2019-05-20T20:27:20.866Z,11.23
2019-05-20T20:29:50.669Z,11.50
2019-05-20T20:32:36.764Z,10.30
2019-05-20T20:34:53.407Z,10.00
2019-05-20T20:37:23.746Z,8.80
2019-05-20T20:39:54.087Z,9.97
2019-05-20T20:42:24.650Z,9.07
2019-05-20T20:44:55.048Z,9.40
2019-05-20T20:47:24.794Z,10.05
2019-05-20T20:49:55.272Z,10.17
2019-05-20T20:52:25.734Z,11.53
2019-05-20T20:54:57.678Z,11.10
2019-05-20T20:57:27.486Z,9.87
2019-05-20T20:59:58.550Z,10.03
2019-05-20T21:02:32.099Z,12.17
2019-05-20T21:05:01.936Z,10.47
2019-05-20T21:07:32.320Z,12.27
2019-05-20T21:10:02.661Z,10.80
2019-05-20T21:12:33.140Z,11.03
2019-05-20T21:15:03.595Z,10.47
2019-05-20T21:17:34.012Z,10.83
2019-05-20T21:20:04.589Z,11.03
2019-05-20T21:22:35.002Z,11.67
2019-05-20T21:25:05.551Z,10.93
2019-05-20T21:27:35.925Z,10.80
2019-05-20T21:30:06.507Z,11.00
2019-05-20T21:32:38.429Z,10.83
2019-05-20T21:35:08.968Z,9.30
2019-05-20T21:37:39.353Z,10.57
2019-05-20T21:40:09.849Z,10.33
2019-05-20T21:42:40.239Z,9.37
2019-05-20T21:45:10.037Z,9.43
2019-05-20T21:47:40.496Z,8.90
2019-05-20T21:50:10.992Z,9.80
2019-05-20T21:52:40.760Z,11.80
2019-05-20T21:55:11.101Z,10.63
2019-05-20T21:57:40.854Z,10.90
2019-05-20T22:00:13.994Z,9.23
2019-05-20T22:02:44.435Z,10.03
2019-05-20T22:05:14.971Z,8.83
2019-05-20T22:07:45.413Z,8.37
2019-05-20T22:10:15.790Z,8.70
2019-05-20T22:12:46.135Z,8.97
2019-05-20T22:15:16.599Z,8.23
2019-05-20T22:17:46.942Z,8.73
2019-05-20T22:20:17.692Z,8.47
2019-05-20T22:22:53.251Z,9.23
2019-05-20T22:25:23.718Z,8.70
2019-05-20T22:27:54.128Z,8.70
2019-05-20T22:30:24.455Z,9.87
2019-05-20T22:32:54.837Z,11.93
2019-05-20T22:35:25.296Z,11.77
2019-05-20T22:37:55.695Z,11.53
2019-05-20T22:40:26.046Z,10.43
2019-05-20T22:42:56.411Z,11.20
2019-05-20T22:45:26.776Z,11.13
2019-05-20T22:47:57.175Z,9.57
2019-05-20T22:50:27.563Z,9.23
2019-05-20T22:52:58.328Z,9.47
2019-05-20T22:55:28.723Z,10.73
2019-05-20T22:57:59.090Z,10.77
2019-05-20T23:00:29.594Z,10.80
2019-05-20T23:02:59.964Z,10.60
2019-05-20T23:05:30.393Z,10.47
2019-05-20T23:08:00.076Z,10.90
2019-05-20T23:10:30.394Z,10.90
2019-05-20T23:13:00.776Z,10.40
2019-05-20T23:15:31.175Z,10.23
2019-05-20T23:18:01.586Z,10.70
2019-05-20T23:20:31.370Z,11.10
2019-05-20T23:23:01.623Z,10.27
2019-05-20T23:25:31.651Z,10.93
2019-05-20T23:28:01.951Z,10.00
2019-05-20T23:30:31.748Z,10.57
2019-05-20T23:33:02.067Z,11.17
2019-05-20T23:35:31.791Z,11.80
2019-05-20T23:38:02.066Z,11.70
2019-05-20T23:40:31.801Z,11.43
2019-05-20T23:43:02.218Z,11.60
2019-05-20T23:45:31.952Z,11.10
2019-05-20T23:48:02.311Z,11.67
2019-05-20T23:50:32.053Z,10.93
2019-05-20T23:53:02.373Z,9.63
2019-05-20T23:55:32.150Z,8.87
2019-05-20T23:58:02.439Z,7.20
